Weather at Philadelphia International Airport

Public forecast

Using degrees Fahrenheit for public forecast. Weather courtesy of forecast.io.

Current aviation weather report (METAR) for Philadelphia International Airport

Retrieved 2021/04/20 21:54 UTC (11 minutes ago):

KPHL 202154Z 18011G20KT 10SM FEW080 FEW250 22/05 A2988 RMK AO2 SLP118 T02220050

Aviation forecast (TAF) for Philadelphia International Airport

Retrieved 2021/04/20 18:27 UTC (4 hours ago):

TAF KPHL 201720Z 2018/2124 24015G23KT P6SM FEW060 BKN250 FM202300 22012G19KT P6SM BKN250 FM210200 18010KT P6SM BKN250 FM210800 18008KT P6SM BKN150 FM211400 20012G19KT P6SM OVC060 FM211600 24015G25KT P6SM -SHRA VCTS OVC035CB FM212200 30020G30KT P6SM SCT070